Senshin Maru — JD2065 — position and weather

sailwx.info

Track history (hours):
 
Tides and Currents Weather Stations Pressure Air Temp Water Temp Dewpoint Dewpoint Depression Visibility Wind Speed Wind Dir Waves Ship Positions

Senshin Maru

Last reported at 2017-Oct-18 02:14 UTC. Time now 2017-Oct-20 07:00 UTC.
Position N 34°37' E 135°12'.

Length 76 m.

Type: Cargo ship. MMSI: 431101099.

Date/timePositionNaut miles runAvg speedWind from/ knotsBaromVisibWave heightAir tempDewpointWater temp
2017-Oct-18 02:14N 34°37' E 135°12'413.2
2017-Oct-18 01:54N 34°38' E 135°17'512.1
2017-Oct-18 01:30N 34°38' E 135°23'2 0.9
2017-Oct-17 23:01N 34°37' E 135°26'0 0.4
2017-Oct-17 22:52N 34°37' E 135°26'2 5.5
2017-Oct-17 22:29N 34°38' E 135°23'1 2.5
2017-Oct-17 21:58N 34°37' E 135°22'0 0.0
2017-Oct-17 21:28N 34°37' E 135°22'0 0.0
2017-Oct-17 20:58N 34°37' E 135°22'0 0.0
2017-Oct-17 19:34N 34°37' E 135°22'0 0.0
2017-Oct-17 19:28N 34°37' E 135°22'0 0.0
2017-Oct-17 18:58N 34°37' E 135°22'0 0.0
2017-Oct-17 18:22N 34°37' E 135°22'0 0.0
2017-Oct-17 17:52N 34°37' E 135°22'0 0.0
2017-Oct-17 17:28N 34°37' E 135°22'0 0.0
2017-Oct-17 16:58N 34°37' E 135°22'0 0.0
2017-Oct-17 16:28N 34°37' E 135°22'0 0.0
2017-Oct-17 15:58N 34°37' E 135°22'0 0.0
2017-Oct-17 15:16N 34°37' E 135°22'0 0.0
2017-Oct-17 14:58N 34°37' E 135°22'0 0.0
2017-Oct-17 14:28N 34°37' E 135°22'0 0.0
2017-Oct-17 13:58N 34°37' E 135°22'0 0.0
2017-Oct-17 13:28N 34°37' E 135°22'0 0.0
2017-Oct-17 12:58N 34°37' E 135°22'0 0.0
2017-Oct-17 12:04N 34°37' E 135°22'0 0.0
2017-Oct-17 11:46N 34°37' E 135°22'0 0.0
2017-Oct-17 11:22N 34°37' E 135°22'0 0.0
2017-Oct-17 10:52N 34°37' E 135°22'0 0.1
2017-Oct-17 10:29N 34°37' E 135°22'610.6
2017-Oct-17 09:57N 34°33' E 135°17'712.0
2017-Oct-17 09:22N 34°28' E 135°11'218 8.7
2017-Oct-16 08:08N 35°01' E 139°34'211.4
2017-Oct-16 07:58N 35°02' E 139°36'612.6
2017-Oct-16 07:30N 35°06' E 139°41'612.9
2017-Oct-16 07:00N 35°12' E 139°46'612.0
2017-Oct-16 06:29N 35°18' E 139°44'1011.3
2017-Oct-16 05:36N 35°27' E 139°46'3 0.1
2017-Oct-14 21:37N 35°30' E 139°48'2 3.6
2017-Oct-14 21:09N 35°28' E 139°47'0 0.0
2017-Oct-14 20:48N 35°28' E 139°47'0 0.0
2017-Oct-14 20:27N 35°28' E 139°47'0 0.0
2017-Oct-14 19:10N 35°28' E 139°47'0 0.0
2017-Oct-14 18:43N 35°28' E 139°47'0 0.0
2017-Oct-14 17:25N 35°28' E 139°47'0 0.0
2017-Oct-14 16:31N 35°28' E 139°47'0 0.0
2017-Oct-14 16:10N 35°28' E 139°47'0 0.0
2017-Oct-14 15:58N 35°28' E 139°47'0 0.0
2017-Oct-14 14:24N 35°28' E 139°47'5 9.1
2017-Oct-14 13:54N 35°23' E 139°46'411.2
2017-Oct-14 13:30N 35°19' E 139°44'810.1
2017-Oct-14 12:43N 35°12' E 139°47'310.3
2017-Oct-14 12:26N 35°09' E 139°46'610.5
2017-Oct-14 11:52N 35°03' E 139°44'410.5
2017-Oct-14 11:30N 34°59' E 139°44'  
Track history (hours):
 
Tides and Currents Weather Stations Pressure Air Temp Water Temp Dewpoint Dewpoint Depression Visibility Wind Speed Wind Dir Waves Ship Positions

Senshin Maru

Last reported at 2017-Oct-18 02:14 UTC. Time now 2017-Oct-20 07:00 UTC.
Position N 34°37' E 135°12'.

Length 76 m.

Type: Cargo ship. MMSI: 431101099.

Date/timePositionNaut miles runAvg speedWind from/ knotsBaromVisibWave heightAir tempDewpointWater temp
2017-Oct-18 02:14N 34°37' E 135°12'413.2
2017-Oct-18 01:54N 34°38' E 135°17'512.1
2017-Oct-18 01:30N 34°38' E 135°23'2 0.9
2017-Oct-17 23:01N 34°37' E 135°26'0 0.4
2017-Oct-17 22:52N 34°37' E 135°26'2 5.5
2017-Oct-17 22:29N 34°38' E 135°23'1 2.5
2017-Oct-17 21:58N 34°37' E 135°22'0 0.0
2017-Oct-17 21:28N 34°37' E 135°22'0 0.0
2017-Oct-17 20:58N 34°37' E 135°22'0 0.0
2017-Oct-17 19:34N 34°37' E 135°22'0 0.0
2017-Oct-17 19:28N 34°37' E 135°22'0 0.0
2017-Oct-17 18:58N 34°37' E 135°22'0 0.0
2017-Oct-17 18:22N 34°37' E 135°22'0 0.0
2017-Oct-17 17:52N 34°37' E 135°22'0 0.0
2017-Oct-17 17:28N 34°37' E 135°22'0 0.0
2017-Oct-17 16:58N 34°37' E 135°22'0 0.0
2017-Oct-17 16:28N 34°37' E 135°22'0 0.0
2017-Oct-17 15:58N 34°37' E 135°22'0 0.0
2017-Oct-17 15:16N 34°37' E 135°22'0 0.0
2017-Oct-17 14:58N 34°37' E 135°22'0 0.0
2017-Oct-17 14:28N 34°37' E 135°22'0 0.0
2017-Oct-17 13:58N 34°37' E 135°22'0 0.0
2017-Oct-17 13:28N 34°37' E 135°22'0 0.0
2017-Oct-17 12:58N 34°37' E 135°22'0 0.0
2017-Oct-17 12:04N 34°37' E 135°22'0 0.0
2017-Oct-17 11:46N 34°37' E 135°22'0 0.0
2017-Oct-17 11:22N 34°37' E 135°22'0 0.0
2017-Oct-17 10:52N 34°37' E 135°22'0 0.1
2017-Oct-17 10:29N 34°37' E 135°22'610.6
2017-Oct-17 09:57N 34°33' E 135°17'712.0
2017-Oct-17 09:22N 34°28' E 135°11'218 8.7
2017-Oct-16 08:08N 35°01' E 139°34'211.4
2017-Oct-16 07:58N 35°02' E 139°36'612.6
2017-Oct-16 07:30N 35°06' E 139°41'612.9
2017-Oct-16 07:00N 35°12' E 139°46'612.0
2017-Oct-16 06:29N 35°18' E 139°44'1011.3
2017-Oct-16 05:36N 35°27' E 139°46'3 0.1
2017-Oct-14 21:37N 35°30' E 139°48'2 3.6
2017-Oct-14 21:09N 35°28' E 139°47'0 0.0
2017-Oct-14 20:48N 35°28' E 139°47'0 0.0
2017-Oct-14 20:27N 35°28' E 139°47'0 0.0
2017-Oct-14 19:10N 35°28' E 139°47'0 0.0
2017-Oct-14 18:43N 35°28' E 139°47'0 0.0
2017-Oct-14 17:25N 35°28' E 139°47'0 0.0
2017-Oct-14 16:31N 35°28' E 139°47'0 0.0
2017-Oct-14 16:10N 35°28' E 139°47'0 0.0
2017-Oct-14 15:58N 35°28' E 139°47'0 0.0
2017-Oct-14 14:24N 35°28' E 139°47'5 9.1
2017-Oct-14 13:54N 35°23' E 139°46'411.2
2017-Oct-14 13:30N 35°19' E 139°44'810.1
2017-Oct-14 12:43N 35°12' E 139°47'310.3
2017-Oct-14 12:26N 35°09' E 139°46'610.5
2017-Oct-14 11:52N 35°03' E 139°44'410.5
2017-Oct-14 11:30N 34°59' E 139°44'  

Dump ship's entire track history